sensor_id;sensor_type;location;lat;lon;timestamp;P1;durP1;ratioP1;P2;durP2;ratioP2
21038;SDS011;10678;51.002;4.786;2023-02-04T00:01:31;37.20;;;22.83;;
21038;SDS011;10678;51.002;4.786;2023-02-04T00:03:58;32.85;;;21.15;;
21038;SDS011;10678;51.002;4.786;2023-02-04T00:06:23;37.65;;;21.35;;
21038;SDS011;10678;51.002;4.786;2023-02-04T00:08:49;39.65;;;22.80;;
21038;SDS011;10678;51.002;4.786;2023-02-04T00:11:15;32.95;;;20.77;;
21038;SDS011;10678;51.002;4.786;2023-02-04T00:13:41;32.30;;;20.88;;
21038;SDS011;10678;51.002;4.786;2023-02-04T00:16:06;35.55;;;21.85;;
21038;SDS011;10678;51.002;4.786;2023-02-04T00:18:32;39.10;;;21.77;;
21038;SDS011;10678;51.002;4.786;2023-02-04T00:20:58;37.92;;;21.77;;
21038;SDS011;10678;51.002;4.786;2023-02-04T00:23:23;41.75;;;22.50;;
21038;SDS011;10678;51.002;4.786;2023-02-04T00:25:49;35.83;;;21.73;;
21038;SDS011;10678;51.002;4.786;2023-02-04T00:28:14;43.65;;;22.05;;
21038;SDS011;10678;51.002;4.786;2023-02-04T00:30:40;36.15;;;21.85;;
21038;SDS011;10678;51.002;4.786;2023-02-04T00:33:06;40.35;;;22.33;;
21038;SDS011;10678;51.002;4.786;2023-02-04T00:35:31;39.50;;;21.85;;
21038;SDS011;10678;51.002;4.786;2023-02-04T00:37:57;43.10;;;23.58;;
21038;SDS011;10678;51.002;4.786;2023-02-04T00:40:22;39.88;;;22.67;;
21038;SDS011;10678;51.002;4.786;2023-02-04T00:42:48;42.28;;;22.38;;
21038;SDS011;10678;51.002;4.786;2023-02-04T00:45:13;43.83;;;22.17;;
21038;SDS011;10678;51.002;4.786;2023-02-04T00:47:39;47.75;;;24.13;;
21038;SDS011;10678;51.002;4.786;2023-02-04T00:50:05;54.58;;;23.55;;
21038;SDS011;10678;51.002;4.786;2023-02-04T00:52:30;45.53;;;21.83;;
21038;SDS011;10678;51.002;4.786;2023-02-04T00:54:56;50.60;;;20.63;;
21038;SDS011;10678;51.002;4.786;2023-02-04T00:57:21;50.42;;;19.30;;
21038;SDS011;10678;51.002;4.786;2023-02-04T00:59:47;46.83;;;16.85;;
21038;SDS011;10678;51.002;4.786;2023-02-04T01:02:13;42.33;;;16.55;;
21038;SDS011;10678;51.002;4.786;2023-02-04T01:04:38;36.92;;;15.05;;
21038;SDS011;10678;51.002;4.786;2023-02-04T01:07:04;32.97;;;12.70;;
21038;SDS011;10678;51.002;4.786;2023-02-04T01:09:29;33.30;;;13.65;;
21038;SDS011;10678;51.002;4.786;2023-02-04T01:11:55;34.30;;;13.10;;
21038;SDS011;10678;51.002;4.786;2023-02-04T01:14:20;35.70;;;14.30;;
21038;SDS011;10678;51.002;4.786;2023-02-04T01:16:46;40.10;;;14.18;;
21038;SDS011;10678;51.002;4.786;2023-02-04T01:19:12;33.78;;;11.82;;
21038;SDS011;10678;51.002;4.786;2023-02-04T01:21:37;30.60;;;11.45;;
21038;SDS011;10678;51.002;4.786;2023-02-04T01:24:03;31.75;;;10.13;;
21038;SDS011;10678;51.002;4.786;2023-02-04T01:26:29;27.90;;;9.40;;
21038;SDS011;10678;51.002;4.786;2023-02-04T01:28:54;28.48;;;9.43;;
21038;SDS011;10678;51.002;4.786;2023-02-04T01:31:20;24.30;;;8.88;;
21038;SDS011;10678;51.002;4.786;2023-02-04T01:33:46;23.55;;;8.70;;
21038;SDS011;10678;51.002;4.786;2023-02-04T01:36:11;24.65;;;8.60;;
21038;SDS011;10678;51.002;4.786;2023-02-04T01:38:37;20.45;;;7.22;;
21038;SDS011;10678;51.002;4.786;2023-02-04T01:41:03;21.38;;;7.28;;
21038;SDS011;10678;51.002;4.786;2023-02-04T01:43:29;30.42;;;7.72;;
21038;SDS011;10678;51.002;4.786;2023-02-04T01:45:55;18.52;;;7.35;;
21038;SDS011;10678;51.002;4.786;2023-02-04T01:48:21;19.13;;;6.13;;
21038;SDS011;10678;51.002;4.786;2023-02-04T01:50:49;26.25;;;7.90;;
21038;SDS011;10678;51.002;4.786;2023-02-04T01:53:18;22.58;;;6.30;;
21038;SDS011;10678;51.002;4.786;2023-02-04T01:55:46;24.80;;;7.18;;
21038;SDS011;10678;51.002;4.786;2023-02-04T01:58:12;25.70;;;7.43;;
21038;SDS011;10678;51.002;4.786;2023-02-04T02:00:39;17.60;;;6.78;;
21038;SDS011;10678;51.002;4.786;2023-02-04T02:03:05;21.77;;;6.43;;
21038;SDS011;10678;51.002;4.786;2023-02-04T02:05:45;23.00;;;6.50;;
21038;SDS011;10678;51.002;4.786;2023-02-04T02:08:13;15.90;;;5.63;;
21038;SDS011;10678;51.002;4.786;2023-02-04T02:10:40;22.25;;;6.47;;
21038;SDS011;10678;51.002;4.786;2023-02-04T02:13:09;22.40;;;5.43;;
21038;SDS011;10678;51.002;4.786;2023-02-04T02:15:38;23.83;;;5.07;;
21038;SDS011;10678;51.002;4.786;2023-02-04T02:18:04;18.13;;;5.10;;
21038;SDS011;10678;51.002;4.786;2023-02-04T02:20:30;23.17;;;5.28;;
21038;SDS011;10678;51.002;4.786;2023-02-04T02:25:50;20.90;;;5.68;;
21038;SDS011;10678;51.002;4.786;2023-02-04T02:28:17;20.05;;;5.82;;
21038;SDS011;10678;51.002;4.786;2023-02-04T02:30:45;19.20;;;5.65;;
21038;SDS011;10678;51.002;4.786;2023-02-04T02:33:13;18.52;;;5.32;;
21038;SDS011;10678;51.002;4.786;2023-02-04T02:35:41;25.88;;;7.10;;
21038;SDS011;10678;51.002;4.786;2023-02-04T02:38:11;22.50;;;5.45;;
21038;SDS011;10678;51.002;4.786;2023-02-04T02:40:37;19.15;;;6.25;;
21038;SDS011;10678;51.002;4.786;2023-02-04T02:43:03;18.23;;;5.38;;
21038;SDS011;10678;51.002;4.786;2023-02-04T02:45:30;16.75;;;5.55;;
21038;SDS011;10678;51.002;4.786;2023-02-04T02:47:58;20.08;;;6.50;;
21038;SDS011;10678;51.002;4.786;2023-02-04T02:50:28;19.80;;;6.97;;
21038;SDS011;10678;51.002;4.786;2023-02-04T02:52:55;18.48;;;5.45;;
21038;SDS011;10678;51.002;4.786;2023-02-04T02:55:22;18.25;;;5.25;;
21038;SDS011;10678;51.002;4.786;2023-02-04T02:57:49;25.33;;;6.63;;
21038;SDS011;10678;51.002;4.786;2023-02-04T03:00:20;25.67;;;7.13;;
21038;SDS011;10678;51.002;4.786;2023-02-04T03:02:59;26.17;;;6.40;;
21038;SDS011;10678;51.002;4.786;2023-02-04T03:05:27;19.63;;;5.38;;
21038;SDS011;10678;51.002;4.786;2023-02-04T03:07:56;24.15;;;5.88;;
21038;SDS011;10678;51.002;4.786;2023-02-04T03:10:22;16.95;;;5.63;;
21038;SDS011;10678;51.002;4.786;2023-02-04T03:12:47;18.33;;;5.53;;
21038;SDS011;10678;51.002;4.786;2023-02-04T03:15:13;23.65;;;6.50;;
21038;SDS011;10678;51.002;4.786;2023-02-04T03:17:39;20.10;;;7.28;;
21038;SDS011;10678;51.002;4.786;2023-02-04T03:20:05;21.05;;;5.95;;
21038;SDS011;10678;51.002;4.786;2023-02-04T03:22:32;20.50;;;6.18;;
21038;SDS011;10678;51.002;4.786;2023-02-04T03:24:58;23.95;;;6.45;;
21038;SDS011;10678;51.002;4.786;2023-02-04T03:27:24;22.63;;;6.47;;
21038;SDS011;10678;51.002;4.786;2023-02-04T03:29:49;19.67;;;5.93;;
21038;SDS011;10678;51.002;4.786;2023-02-04T03:32:15;23.95;;;6.05;;
21038;SDS011;10678;51.002;4.786;2023-02-04T03:34:41;21.60;;;6.35;;
21038;SDS011;10678;51.002;4.786;2023-02-04T03:37:07;19.98;;;7.28;;
21038;SDS011;10678;51.002;4.786;2023-02-04T03:39:33;21.63;;;6.18;;
21038;SDS011;10678;51.002;4.786;2023-02-04T03:41:58;28.20;;;6.35;;
21038;SDS011;10678;51.002;4.786;2023-02-04T03:44:24;24.17;;;6.47;;
21038;SDS011;10678;51.002;4.786;2023-02-04T03:46:53;12.82;;;5.30;;
21038;SDS011;10678;51.002;4.786;2023-02-04T03:49:22;20.75;;;6.32;;
21038;SDS011;10678;51.002;4.786;2023-02-04T03:51:48;16.45;;;4.95;;
21038;SDS011;10678;51.002;4.786;2023-02-04T03:54:14;22.15;;;6.25;;
21038;SDS011;10678;51.002;4.786;2023-02-04T03:56:39;24.20;;;7.78;;
21038;SDS011;10678;51.002;4.786;2023-02-04T03:59:05;26.23;;;8.43;;
21038;SDS011;10678;51.002;4.786;2023-02-04T04:01:30;28.67;;;14.48;;
21038;SDS011;10678;51.002;4.786;2023-02-04T04:03:56;27.55;;;11.00;;
21038;SDS011;10678;51.002;4.786;2023-02-04T04:06:22;25.52;;;9.88;;
21038;SDS011;10678;51.002;4.786;2023-02-04T04:08:47;25.30;;;8.45;;
21038;SDS011;10678;51.002;4.786;2023-02-04T04:11:13;21.70;;;9.55;;
21038;SDS011;10678;51.002;4.786;2023-02-04T04:13:39;20.13;;;8.40;;
21038;SDS011;10678;51.002;4.786;2023-02-04T04:16:04;21.27;;;7.75;;
21038;SDS011;10678;51.002;4.786;2023-02-04T04:18:30;16.65;;;6.88;;
21038;SDS011;10678;51.002;4.786;2023-02-04T04:20:57;28.63;;;12.23;;
21038;SDS011;10678;51.002;4.786;2023-02-04T04:23:23;27.02;;;12.13;;
21038;SDS011;10678;51.002;4.786;2023-02-04T04:25:49;28.40;;;12.63;;
21038;SDS011;10678;51.002;4.786;2023-02-04T04:28:14;24.27;;;10.23;;
21038;SDS011;10678;51.002;4.786;2023-02-04T04:30:40;22.27;;;7.68;;
21038;SDS011;10678;51.002;4.786;2023-02-04T04:33:06;21.25;;;7.45;;
21038;SDS011;10678;51.002;4.786;2023-02-04T04:35:31;21.80;;;7.30;;
21038;SDS011;10678;51.002;4.786;2023-02-04T04:37:58;23.90;;;8.27;;
21038;SDS011;10678;51.002;4.786;2023-02-04T04:40:25;22.13;;;8.30;;
21038;SDS011;10678;51.002;4.786;2023-02-04T04:42:50;29.08;;;8.27;;
21038;SDS011;10678;51.002;4.786;2023-02-04T04:45:16;24.02;;;8.48;;
21038;SDS011;10678;51.002;4.786;2023-02-04T04:47:41;18.60;;;8.02;;
21038;SDS011;10678;51.002;4.786;2023-02-04T04:50:07;21.13;;;7.47;;
21038;SDS011;10678;51.002;4.786;2023-02-04T04:52:33;22.83;;;7.88;;
21038;SDS011;10678;51.002;4.786;2023-02-04T04:54:58;20.15;;;8.35;;
21038;SDS011;10678;51.002;4.786;2023-02-04T04:57:24;23.25;;;10.27;;
21038;SDS011;10678;51.002;4.786;2023-02-04T04:59:50;18.80;;;8.00;;
21038;SDS011;10678;51.002;4.786;2023-02-04T05:02:15;23.23;;;9.13;;
21038;SDS011;10678;51.002;4.786;2023-02-04T05:04:41;20.65;;;9.35;;
21038;SDS011;10678;51.002;4.786;2023-02-04T05:07:06;25.23;;;8.88;;
21038;SDS011;10678;51.002;4.786;2023-02-04T05:09:32;20.55;;;8.10;;
21038;SDS011;10678;51.002;4.786;2023-02-04T05:11:57;25.15;;;10.20;;
21038;SDS011;10678;51.002;4.786;2023-02-04T05:14:23;25.98;;;10.35;;
21038;SDS011;10678;51.002;4.786;2023-02-04T05:16:48;26.42;;;11.60;;
21038;SDS011;10678;51.002;4.786;2023-02-04T05:19:14;28.45;;;13.40;;
21038;SDS011;10678;51.002;4.786;2023-02-04T05:21:40;44.65;;;14.55;;
21038;SDS011;10678;51.002;4.786;2023-02-04T05:24:05;23.05;;;9.73;;
21038;SDS011;10678;51.002;4.786;2023-02-04T05:26:31;30.00;;;11.55;;
21038;SDS011;10678;51.002;4.786;2023-02-04T05:28:57;26.88;;;8.68;;
21038;SDS011;10678;51.002;4.786;2023-02-04T05:31:26;23.15;;;7.82;;
21038;SDS011;10678;51.002;4.786;2023-02-04T05:33:52;27.92;;;8.57;;
21038;SDS011;10678;51.002;4.786;2023-02-04T05:36:18;21.90;;;7.50;;
21038;SDS011;10678;51.002;4.786;2023-02-04T05:38:44;18.80;;;8.10;;
21038;SDS011;10678;51.002;4.786;2023-02-04T05:41:10;26.23;;;9.50;;
21038;SDS011;10678;51.002;4.786;2023-02-04T05:43:35;23.30;;;8.50;;
21038;SDS011;10678;51.002;4.786;2023-02-04T05:46:01;18.33;;;7.50;;
21038;SDS011;10678;51.002;4.786;2023-02-04T05:48:27;19.88;;;7.60;;
21038;SDS011;10678;51.002;4.786;2023-02-04T05:50:52;21.38;;;7.75;;
21038;SDS011;10678;51.002;4.786;2023-02-04T05:53:18;23.90;;;9.40;;
21038;SDS011;10678;51.002;4.786;2023-02-04T05:55:43;21.52;;;8.60;;
21038;SDS011;10678;51.002;4.786;2023-02-04T05:58:09;24.27;;;7.22;;
21038;SDS011;10678;51.002;4.786;2023-02-04T06:00:34;24.40;;;7.80;;
21038;SDS011;10678;51.002;4.786;2023-02-04T06:03:00;21.13;;;7.63;;
21038;SDS011;10678;51.002;4.786;2023-02-04T06:05:26;20.77;;;7.80;;
21038;SDS011;10678;51.002;4.786;2023-02-04T06:07:51;24.05;;;8.20;;
21038;SDS011;10678;51.002;4.786;2023-02-04T06:10:17;27.13;;;9.65;;
21038;SDS011;10678;51.002;4.786;2023-02-04T06:12:42;24.05;;;7.65;;
21038;SDS011;10678;51.002;4.786;2023-02-04T06:15:08;23.92;;;8.85;;
21038;SDS011;10678;51.002;4.786;2023-02-04T06:17:34;29.63;;;8.57;;
21038;SDS011;10678;51.002;4.786;2023-02-04T06:20:00;20.65;;;8.82;;
21038;SDS011;10678;51.002;4.786;2023-02-04T06:22:25;21.90;;;8.45;;
21038;SDS011;10678;51.002;4.786;2023-02-04T06:24:51;30.10;;;8.93;;
21038;SDS011;10678;51.002;4.786;2023-02-04T06:27:17;24.33;;;8.38;;
21038;SDS011;10678;51.002;4.786;2023-02-04T06:29:51;35.50;;;8.77;;
21038;SDS011;10678;51.002;4.786;2023-02-04T06:32:17;22.58;;;9.35;;
21038;SDS011;10678;51.002;4.786;2023-02-04T06:34:43;21.15;;;8.55;;
21038;SDS011;10678;51.002;4.786;2023-02-04T06:37:09;23.15;;;8.55;;
21038;SDS011;10678;51.002;4.786;2023-02-04T06:39:35;23.88;;;9.05;;
21038;SDS011;10678;51.002;4.786;2023-02-04T06:42:01;26.27;;;7.95;;
21038;SDS011;10678;51.002;4.786;2023-02-04T06:44:26;28.20;;;9.52;;
21038;SDS011;10678;51.002;4.786;2023-02-04T06:46:52;29.20;;;9.07;;
21038;SDS011;10678;51.002;4.786;2023-02-04T06:49:18;25.65;;;9.45;;
21038;SDS011;10678;51.002;4.786;2023-02-04T06:51:44;24.73;;;8.15;;
21038;SDS011;10678;51.002;4.786;2023-02-04T06:54:10;23.80;;;8.18;;
21038;SDS011;10678;51.002;4.786;2023-02-04T06:56:36;21.98;;;8.07;;
21038;SDS011;10678;51.002;4.786;2023-02-04T06:59:01;22.98;;;8.50;;
21038;SDS011;10678;51.002;4.786;2023-02-04T07:01:27;23.25;;;8.48;;
21038;SDS011;10678;51.002;4.786;2023-02-04T07:03:53;20.50;;;8.48;;
21038;SDS011;10678;51.002;4.786;2023-02-04T07:06:18;21.60;;;9.35;;
21038;SDS011;10678;51.002;4.786;2023-02-04T07:08:44;24.40;;;7.95;;
21038;SDS011;10678;51.002;4.786;2023-02-04T07:11:11;18.77;;;8.52;;
21038;SDS011;10678;51.002;4.786;2023-02-04T07:13:37;22.65;;;8.75;;
21038;SDS011;10678;51.002;4.786;2023-02-04T07:16:02;20.80;;;8.50;;
21038;SDS011;10678;51.002;4.786;2023-02-04T07:18:28;30.95;;;8.38;;
21038;SDS011;10678;51.002;4.786;2023-02-04T07:20:53;22.77;;;8.27;;
21038;SDS011;10678;51.002;4.786;2023-02-04T07:23:19;24.20;;;9.18;;
21038;SDS011;10678;51.002;4.786;2023-02-04T07:25:44;26.90;;;8.95;;
21038;SDS011;10678;51.002;4.786;2023-02-04T07:28:10;23.70;;;8.15;;
21038;SDS011;10678;51.002;4.786;2023-02-04T07:30:36;16.13;;;7.40;;
21038;SDS011;10678;51.002;4.786;2023-02-04T07:33:01;19.60;;;8.18;;
21038;SDS011;10678;51.002;4.786;2023-02-04T07:35:27;29.30;;;9.63;;
21038;SDS011;10678;51.002;4.786;2023-02-04T07:37:52;23.67;;;9.48;;
21038;SDS011;10678;51.002;4.786;2023-02-04T07:40:18;23.35;;;9.35;;
21038;SDS011;10678;51.002;4.786;2023-02-04T07:42:45;26.85;;;10.27;;
21038;SDS011;10678;51.002;4.786;2023-02-04T07:45:11;27.35;;;10.45;;
21038;SDS011;10678;51.002;4.786;2023-02-04T07:47:36;27.40;;;11.20;;
21038;SDS011;10678;51.002;4.786;2023-02-04T07:50:02;25.02;;;9.60;;
21038;SDS011;10678;51.002;4.786;2023-02-04T07:52:28;28.15;;;10.57;;
21038;SDS011;10678;51.002;4.786;2023-02-04T07:54:53;29.75;;;9.80;;
21038;SDS011;10678;51.002;4.786;2023-02-04T07:57:19;28.73;;;10.25;;
21038;SDS011;10678;51.002;4.786;2023-02-04T07:59:45;27.77;;;10.73;;
21038;SDS011;10678;51.002;4.786;2023-02-04T08:02:10;38.80;;;10.80;;
21038;SDS011;10678;51.002;4.786;2023-02-04T08:04:36;29.35;;;10.63;;
21038;SDS011;10678;51.002;4.786;2023-02-04T08:07:05;27.88;;;11.27;;
21038;SDS011;10678;51.002;4.786;2023-02-04T08:09:30;33.95;;;15.13;;
21038;SDS011;10678;51.002;4.786;2023-02-04T08:11:56;60.97;;;24.42;;
21038;SDS011;10678;51.002;4.786;2023-02-04T08:14:23;72.60;;;29.73;;
21038;SDS011;10678;51.002;4.786;2023-02-04T08:16:49;39.72;;;15.48;;
21038;SDS011;10678;51.002;4.786;2023-02-04T08:19:15;42.45;;;18.35;;
21038;SDS011;10678;51.002;4.786;2023-02-04T08:21:43;34.55;;;14.98;;
21038;SDS011;10678;51.002;4.786;2023-02-04T08:24:10;30.63;;;13.43;;
21038;SDS011;10678;51.002;4.786;2023-02-04T08:26:36;39.50;;;13.45;;
21038;SDS011;10678;51.002;4.786;2023-02-04T08:29:02;31.90;;;13.43;;
21038;SDS011;10678;51.002;4.786;2023-02-04T08:31:28;27.83;;;11.55;;
21038;SDS011;10678;51.002;4.786;2023-02-04T08:33:53;29.85;;;11.10;;
21038;SDS011;10678;51.002;4.786;2023-02-04T08:36:19;33.03;;;11.38;;
21038;SDS011;10678;51.002;4.786;2023-02-04T08:38:44;32.80;;;11.57;;
21038;SDS011;10678;51.002;4.786;2023-02-04T08:41:10;27.90;;;11.63;;
21038;SDS011;10678;51.002;4.786;2023-02-04T08:43:35;29.58;;;11.30;;
21038;SDS011;10678;51.002;4.786;2023-02-04T08:46:01;29.27;;;12.40;;
21038;SDS011;10678;51.002;4.786;2023-02-04T08:48:27;36.08;;;12.55;;
21038;SDS011;10678;51.002;4.786;2023-02-04T08:50:52;31.50;;;12.05;;
21038;SDS011;10678;51.002;4.786;2023-02-04T08:53:18;32.28;;;12.27;;
21038;SDS011;10678;51.002;4.786;2023-02-04T08:55:43;30.17;;;11.60;;
21038;SDS011;10678;51.002;4.786;2023-02-04T08:58:09;35.67;;;12.70;;
21038;SDS011;10678;51.002;4.786;2023-02-04T09:00:34;34.65;;;12.52;;
21038;SDS011;10678;51.002;4.786;2023-02-04T09:03:00;34.60;;;13.50;;
21038;SDS011;10678;51.002;4.786;2023-02-04T09:05:26;31.33;;;12.65;;
21038;SDS011;10678;51.002;4.786;2023-02-04T09:07:51;33.00;;;13.07;;
21038;SDS011;10678;51.002;4.786;2023-02-04T09:10:17;31.10;;;12.57;;
21038;SDS011;10678;51.002;4.786;2023-02-04T09:12:42;28.70;;;12.63;;
21038;SDS011;10678;51.002;4.786;2023-02-04T09:15:09;38.03;;;13.68;;
21038;SDS011;10678;51.002;4.786;2023-02-04T09:17:35;60.38;;;30.00;;
21038;SDS011;10678;51.002;4.786;2023-02-04T09:20:02;37.03;;;18.83;;
21038;SDS011;10678;51.002;4.786;2023-02-04T09:22:28;38.13;;;13.88;;
21038;SDS011;10678;51.002;4.786;2023-02-04T09:24:53;26.50;;;12.70;;
21038;SDS011;10678;51.002;4.786;2023-02-04T09:27:20;24.55;;;10.27;;
21038;SDS011;10678;51.002;4.786;2023-02-04T09:29:45;26.73;;;9.35;;
21038;SDS011;10678;51.002;4.786;2023-02-04T09:32:11;21.80;;;9.30;;
21038;SDS011;10678;51.002;4.786;2023-02-04T09:34:37;33.75;;;11.68;;
21038;SDS011;10678;51.002;4.786;2023-02-04T09:37:02;25.00;;;11.13;;
21038;SDS011;10678;51.002;4.786;2023-02-04T09:39:28;25.80;;;10.32;;
21038;SDS011;10678;51.002;4.786;2023-02-04T09:41:53;33.22;;;12.55;;
21038;SDS011;10678;51.002;4.786;2023-02-04T09:44:20;27.33;;;11.73;;
21038;SDS011;10678;51.002;4.786;2023-02-04T09:46:52;22.60;;;10.95;;
21038;SDS011;10678;51.002;4.786;2023-02-04T09:49:20;28.55;;;12.77;;
21038;SDS011;10678;51.002;4.786;2023-02-04T09:51:46;28.10;;;12.60;;
21038;SDS011;10678;51.002;4.786;2023-02-04T09:54:14;27.40;;;11.68;;
21038;SDS011;10678;51.002;4.786;2023-02-04T09:56:41;26.30;;;13.10;;
21038;SDS011;10678;51.002;4.786;2023-02-04T09:59:14;32.30;;;13.13;;
21038;SDS011;10678;51.002;4.786;2023-02-04T10:01:42;28.70;;;13.73;;
21038;SDS011;10678;51.002;4.786;2023-02-04T10:04:09;21.02;;;8.20;;
21038;SDS011;10678;51.002;4.786;2023-02-04T10:06:39;23.48;;;8.02;;
21038;SDS011;10678;51.002;4.786;2023-02-04T10:09:08;19.30;;;8.20;;
21038;SDS011;10678;51.002;4.786;2023-02-04T10:11:38;24.35;;;9.40;;
21038;SDS011;10678;51.002;4.786;2023-02-04T10:14:05;26.73;;;10.65;;
21038;SDS011;10678;51.002;4.786;2023-02-04T10:16:39;24.30;;;10.77;;
21038;SDS011;10678;51.002;4.786;2023-02-04T10:19:10;21.30;;;9.20;;
21038;SDS011;10678;51.002;4.786;2023-02-04T10:21:39;18.67;;;7.15;;
21038;SDS011;10678;51.002;4.786;2023-02-04T10:24:09;17.92;;;7.63;;
21038;SDS011;10678;51.002;4.786;2023-02-04T10:26:41;14.90;;;6.60;;
21038;SDS011;10678;51.002;4.786;2023-02-04T10:29:11;16.27;;;6.65;;
21038;SDS011;10678;51.002;4.786;2023-02-04T10:31:45;21.00;;;6.82;;
21038;SDS011;10678;51.002;4.786;2023-02-04T10:36:50;17.08;;;6.72;;
21038;SDS011;10678;51.002;4.786;2023-02-04T10:39:18;16.27;;;6.13;;
21038;SDS011;10678;51.002;4.786;2023-02-04T10:41:58;11.65;;;5.75;;
21038;SDS011;10678;51.002;4.786;2023-02-04T10:44:28;16.67;;;6.05;;
21038;SDS011;10678;51.002;4.786;2023-02-04T10:46:59;16.35;;;7.82;;
21038;SDS011;10678;51.002;4.786;2023-02-04T10:49:28;20.33;;;9.45;;
21038;SDS011;10678;51.002;4.786;2023-02-04T10:51:54;20.33;;;9.90;;
21038;SDS011;10678;51.002;4.786;2023-02-04T10:54:20;22.70;;;9.70;;
21038;SDS011;10678;51.002;4.786;2023-02-04T10:56:56;20.90;;;10.23;;
21038;SDS011;10678;51.002;4.786;2023-02-04T10:59:30;22.20;;;10.40;;
21038;SDS011;10678;51.002;4.786;2023-02-04T11:01:56;23.00;;;10.35;;
21038;SDS011;10678;51.002;4.786;2023-02-04T11:04:24;21.65;;;9.32;;
21038;SDS011;10678;51.002;4.786;2023-02-04T11:06:51;19.50;;;10.68;;
21038;SDS011;10678;51.002;4.786;2023-02-04T11:09:17;15.23;;;7.57;;
21038;SDS011;10678;51.002;4.786;2023-02-04T11:11:44;14.20;;;7.15;;
21038;SDS011;10678;51.002;4.786;2023-02-04T11:14:21;20.83;;;8.27;;
21038;SDS011;10678;51.002;4.786;2023-02-04T11:16:49;17.05;;;7.00;;
21038;SDS011;10678;51.002;4.786;2023-02-04T11:19:28;15.65;;;7.63;;
21038;SDS011;10678;51.002;4.786;2023-02-04T11:22:03;19.13;;;7.95;;
21038;SDS011;10678;51.002;4.786;2023-02-04T11:24:34;14.80;;;6.80;;
21038;SDS011;10678;51.002;4.786;2023-02-04T11:27:19;17.90;;;6.57;;
21038;SDS011;10678;51.002;4.786;2023-02-04T11:29:46;14.98;;;6.70;;
21038;SDS011;10678;51.002;4.786;2023-02-04T11:35:04;12.20;;;6.30;;
21038;SDS011;10678;51.002;4.786;2023-02-04T11:37:50;14.63;;;7.68;;
21038;SDS011;10678;51.002;4.786;2023-02-04T11:42:48;15.38;;;7.28;;
21038;SDS011;10678;51.002;4.786;2023-02-04T11:45:15;11.65;;;6.38;;
21038;SDS011;10678;51.002;4.786;2023-02-04T11:47:44;16.63;;;7.03;;
21038;SDS011;10678;51.002;4.786;2023-02-04T11:50:21;16.42;;;7.75;;
21038;SDS011;10678;51.002;4.786;2023-02-04T11:52:50;13.98;;;7.28;;
21038;SDS011;10678;51.002;4.786;2023-02-04T11:55:17;17.88;;;7.40;;
21038;SDS011;10678;51.002;4.786;2023-02-04T11:57:43;14.45;;;7.15;;
21038;SDS011;10678;51.002;4.786;2023-02-04T12:00:16;16.05;;;7.53;;
21038;SDS011;10678;51.002;4.786;2023-02-04T12:03:04;16.13;;;7.38;;
21038;SDS011;10678;51.002;4.786;2023-02-04T12:05:41;11.55;;;6.00;;
21038;SDS011;10678;51.002;4.786;2023-02-04T12:08:08;15.57;;;7.25;;
21038;SDS011;10678;51.002;4.786;2023-02-04T12:10:36;15.75;;;8.40;;
21038;SDS011;10678;51.002;4.786;2023-02-04T12:13:10;14.38;;;6.97;;
21038;SDS011;10678;51.002;4.786;2023-02-04T12:15:37;15.90;;;7.50;;
21038;SDS011;10678;51.002;4.786;2023-02-04T12:18:09;13.25;;;6.57;;
21038;SDS011;10678;51.002;4.786;2023-02-04T12:20:40;13.88;;;6.97;;
21038;SDS011;10678;51.002;4.786;2023-02-04T12:23:06;14.77;;;7.15;;
21038;SDS011;10678;51.002;4.786;2023-02-04T12:25:32;18.60;;;10.68;;
21038;SDS011;10678;51.002;4.786;2023-02-04T12:27:58;15.43;;;7.57;;
21038;SDS011;10678;51.002;4.786;2023-02-04T12:30:25;12.13;;;6.95;;
21038;SDS011;10678;51.002;4.786;2023-02-04T12:32:51;13.15;;;6.28;;
21038;SDS011;10678;51.002;4.786;2023-02-04T12:35:17;11.18;;;6.55;;
21038;SDS011;10678;51.002;4.786;2023-02-04T12:37:43;11.13;;;5.68;;
21038;SDS011;10678;51.002;4.786;2023-02-04T12:40:13;11.93;;;6.15;;
21038;SDS011;10678;51.002;4.786;2023-02-04T12:42:40;11.43;;;4.88;;
21038;SDS011;10678;51.002;4.786;2023-02-04T12:45:06;9.82;;;5.60;;
21038;SDS011;10678;51.002;4.786;2023-02-04T12:47:32;8.88;;;4.43;;
21038;SDS011;10678;51.002;4.786;2023-02-04T12:49:58;10.45;;;5.05;;
21038;SDS011;10678;51.002;4.786;2023-02-04T12:52:24;10.25;;;5.20;;
21038;SDS011;10678;51.002;4.786;2023-02-04T12:54:50;10.18;;;5.97;;
21038;SDS011;10678;51.002;4.786;2023-02-04T12:57:15;9.32;;;5.68;;
21038;SDS011;10678;51.002;4.786;2023-02-04T12:59:43;13.45;;;6.82;;
21038;SDS011;10678;51.002;4.786;2023-02-04T13:02:13;12.27;;;6.32;;
21038;SDS011;10678;51.002;4.786;2023-02-04T13:04:39;11.25;;;6.00;;
21038;SDS011;10678;51.002;4.786;2023-02-04T13:07:05;11.85;;;6.30;;
21038;SDS011;10678;51.002;4.786;2023-02-04T13:09:34;9.18;;;5.80;;
21038;SDS011;10678;51.002;4.786;2023-02-04T13:12:01;11.90;;;5.88;;
21038;SDS011;10678;51.002;4.786;2023-02-04T13:14:27;11.23;;;5.75;;
21038;SDS011;10678;51.002;4.786;2023-02-04T13:16:52;10.40;;;5.55;;
21038;SDS011;10678;51.002;4.786;2023-02-04T13:19:18;10.20;;;5.93;;
21038;SDS011;10678;51.002;4.786;2023-02-04T13:21:43;11.63;;;6.85;;
21038;SDS011;10678;51.002;4.786;2023-02-04T13:24:09;11.73;;;6.10;;
21038;SDS011;10678;51.002;4.786;2023-02-04T13:26:35;10.82;;;6.70;;
21038;SDS011;10678;51.002;4.786;2023-02-04T13:29:00;12.35;;;6.40;;
21038;SDS011;10678;51.002;4.786;2023-02-04T13:31:26;12.10;;;6.50;;
21038;SDS011;10678;51.002;4.786;2023-02-04T13:33:51;14.00;;;6.50;;
21038;SDS011;10678;51.002;4.786;2023-02-04T13:36:17;11.80;;;6.60;;
21038;SDS011;10678;51.002;4.786;2023-02-04T13:38:42;12.45;;;6.53;;
21038;SDS011;10678;51.002;4.786;2023-02-04T13:41:08;10.90;;;6.78;;
21038;SDS011;10678;51.002;4.786;2023-02-04T13:43:33;11.32;;;6.97;;
21038;SDS011;10678;51.002;4.786;2023-02-04T13:45:59;12.23;;;7.18;;
21038;SDS011;10678;51.002;4.786;2023-02-04T13:48:26;12.52;;;6.90;;
21038;SDS011;10678;51.002;4.786;2023-02-04T13:50:52;11.05;;;6.55;;
21038;SDS011;10678;51.002;4.786;2023-02-04T13:53:17;10.77;;;6.30;;
21038;SDS011;10678;51.002;4.786;2023-02-04T13:55:43;12.80;;;6.57;;
21038;SDS011;10678;51.002;4.786;2023-02-04T13:58:09;10.38;;;6.53;;
21038;SDS011;10678;51.002;4.786;2023-02-04T14:00:34;13.05;;;7.32;;
21038;SDS011;10678;51.002;4.786;2023-02-04T14:03:00;12.00;;;7.22;;
21038;SDS011;10678;51.002;4.786;2023-02-04T14:05:25;11.32;;;6.25;;
21038;SDS011;10678;51.002;4.786;2023-02-04T14:07:51;13.07;;;7.38;;
21038;SDS011;10678;51.002;4.786;2023-02-04T14:10:17;12.35;;;6.40;;
21038;SDS011;10678;51.002;4.786;2023-02-04T14:12:42;14.10;;;7.20;;
21038;SDS011;10678;51.002;4.786;2023-02-04T14:15:09;13.10;;;7.13;;
21038;SDS011;10678;51.002;4.786;2023-02-04T14:17:35;17.30;;;9.65;;
21038;SDS011;10678;51.002;4.786;2023-02-04T14:20:00;17.17;;;10.75;;
21038;SDS011;10678;51.002;4.786;2023-02-04T14:22:29;20.00;;;13.40;;
21038;SDS011;10678;51.002;4.786;2023-02-04T14:24:55;11.80;;;7.22;;
21038;SDS011;10678;51.002;4.786;2023-02-04T14:27:20;12.80;;;8.18;;
21038;SDS011;10678;51.002;4.786;2023-02-04T14:29:46;14.02;;;7.78;;
21038;SDS011;10678;51.002;4.786;2023-02-04T14:32:11;15.93;;;8.13;;
21038;SDS011;10678;51.002;4.786;2023-02-04T14:34:37;12.77;;;7.68;;
21038;SDS011;10678;51.002;4.786;2023-02-04T14:37:02;12.05;;;8.10;;
21038;SDS011;10678;51.002;4.786;2023-02-04T14:39:28;12.70;;;7.97;;